Time;durP1;ratioP1;P1;durP2;ratioP2;P2;SDS_P1;SDS_P2;PMS_P1;PMS_P2;Temp;Humidity;BMP_temperature;BMP_pressure;BME280_temperature;BME280_humidity;BME280_pressure;Samples;Min_cycle;Max_cycle;Signal;HPM_P1;HPM_P2
2024/01/04 00:02:14;;;;;;;4.00;3.80;;;7.90;99.90;;;;;;5034516;28;20203;-72
2024/01/04 00:04:42;;;;;;;4.20;3.80;;;7.90;99.90;;;;;;5034439;28;20251;-72
2024/01/04 00:07:08;;;;;;;4.10;3.90;;;8.00;99.90;;;;;;5034383;28;20627;-73
2024/01/04 00:09:33;;;;;;;7.70;4.10;;;8.00;99.90;;;;;;5034622;28;20289;-73
2024/01/04 00:11:59;;;;;;;4.23;4.03;;;8.00;99.90;;;;;;5034384;28;20241;-73
2024/01/04 00:14:25;;;;;;;4.43;4.23;;;8.00;99.90;;;;;;5034393;28;20183;-72
2024/01/04 00:16:50;;;;;;;7.50;4.07;;;8.10;99.90;;;;;;5034062;28;20210;-73
2024/01/04 00:19:16;;;;;;;4.97;4.63;;;8.10;99.90;;;;;;5034215;28;20644;-72
2024/01/04 00:21:42;;;;;;;4.67;4.20;;;8.10;99.90;;;;;;5043171;28;20214;-73
2024/01/04 00:24:07;;;;;;;5.20;4.70;;;8.20;99.90;;;;;;5054128;28;20193;-73
2024/01/04 00:26:33;;;;;;;5.33;4.70;;;8.20;99.90;;;;;;5054037;28;20201;-74
2024/01/04 00:28:59;;;;;;;7.40;4.60;;;8.20;99.90;;;;;;5054231;28;20186;-73
2024/01/04 00:31:25;;;;;;;5.33;4.50;;;8.20;99.90;;;;;;5036080;28;20210;-72
2024/01/04 00:33:51;;;;;;;6.63;4.77;;;8.20;99.90;;;;;;5053678;28;20212;-72
2024/01/04 00:36:16;;;;;;;4.73;4.43;;;8.20;99.90;;;;;;5046335;28;20207;-73
2024/01/04 00:38:42;;;;;;;6.00;4.40;;;8.30;99.90;;;;;;5033955;28;20214;-72
2024/01/04 00:41:07;;;;;;;9.73;4.83;;;8.30;99.90;;;;;;5034271;28;20191;-72
2024/01/04 00:43:33;;;;;;;6.07;5.47;;;8.30;99.90;;;;;;5033900;28;20667;-72
2024/01/04 00:45:59;;;;;;;6.53;4.97;;;8.30;99.90;;;;;;5033317;28;20195;-72
2024/01/04 00:48:24;;;;;;;7.80;5.13;;;8.40;99.90;;;;;;5033657;28;20255;-72
2024/01/04 00:50:50;;;;;;;6.40;5.03;;;8.40;99.90;;;;;;5034591;28;20187;-72
2024/01/04 00:53:16;;;;;;;9.27;5.33;;;8.40;99.90;;;;;;5033544;28;20176;-72
2024/01/04 00:55:41;;;;;;;15.23;6.23;;;8.30;99.90;;;;;;5033778;28;20206;-73
2024/01/04 00:58:07;;;;;;;7.30;5.23;;;8.40;99.90;;;;;;5033394;28;20222;-72
2024/01/04 01:00:33;;;;;;;6.13;5.33;;;8.30;99.90;;;;;;5043651;28;20190;-73
2024/01/04 01:02:59;;;;;;;6.40;5.83;;;8.30;99.90;;;;;;5054366;28;20600;-73
2024/01/04 01:05:24;;;;;;;7.17;5.47;;;8.30;99.90;;;;;;5054504;28;20201;-72
2024/01/04 01:07:50;;;;;;;6.73;4.90;;;8.30;99.90;;;;;;5053404;28;20547;-72
2024/01/04 01:10:16;;;;;;;8.73;5.57;;;8.30;99.90;;;;;;5052394;28;20262;-72
2024/01/04 01:12:41;;;;;;;5.97;5.57;;;8.30;99.90;;;;;;5052587;28;20182;-72
2024/01/04 01:15:08;;;;;;;8.20;5.73;;;8.30;99.90;;;;;;5052994;28;20566;-73
2024/01/04 01:17:33;;;;;;;7.80;5.87;;;8.30;99.90;;;;;;5045610;28;20196;-73
2024/01/04 01:19:59;;;;;;;7.23;5.53;;;8.30;99.90;;;;;;5015201;28;20361;-73
2024/01/04 01:22:26;;;;;;;7.73;5.33;;;8.30;99.90;;;;;;5032809;28;20222;-74
2024/01/04 01:24:52;;;;;;;7.77;5.90;;;8.30;99.90;;;;;;5032787;28;20591;-73
2024/01/04 01:27:19;;;;;;;9.53;5.10;;;8.30;99.90;;;;;;5032994;28;20195;-73
2024/01/04 01:29:44;;;;;;;9.20;5.30;;;8.30;99.90;;;;;;5032967;28;20183;-73
2024/01/04 01:32:10;;;;;;;6.07;5.47;;;8.30;99.90;;;;;;5038456;28;20189;-73
2024/01/04 01:34:36;;;;;;;7.07;5.83;;;8.30;99.90;;;;;;5052604;28;20259;-73
2024/01/04 01:37:01;;;;;;;11.07;5.73;;;8.30;99.90;;;;;;5052355;28;20175;-74
2024/01/04 01:39:27;;;;;;;6.10;5.50;;;8.30;99.90;;;;;;5052984;28;20692;-73
2024/01/04 01:41:53;;;;;;;6.20;5.70;;;8.30;99.90;;;;;;5052508;28;20732;-75
2024/01/04 01:44:18;;;;;;;9.57;5.53;;;8.30;99.90;;;;;;5052635;28;20179;-73
2024/01/04 01:46:45;;;;;;;7.97;5.67;;;8.30;99.90;;;;;;5035235;28;20205;-72
2024/01/04 01:49:11;;;;;;;7.20;6.20;;;8.40;99.90;;;;;;5032556;28;20668;-73
2024/01/04 01:51:37;;;;;;;8.13;5.40;;;8.40;99.90;;;;;;5032615;28;20275;-73
2024/01/04 01:54:04;;;;;;;8.50;6.13;;;8.40;99.90;;;;;;5032201;28;20656;-73
2024/01/04 01:56:30;;;;;;;8.50;5.50;;;8.40;99.90;;;;;;5032269;28;20195;-74
2024/01/04 01:58:57;;;;;;;9.47;5.30;;;8.40;99.90;;;;;;5032289;28;20302;-73
2024/01/04 02:01:23;;;;;;;6.07;5.10;;;8.40;99.90;;;;;;5047723;28;20186;-73
2024/01/04 02:03:50;;;;;;;10.67;5.30;;;8.40;99.90;;;;;;5052060;28;20189;-73
2024/01/04 02:06:15;;;;;;;6.83;5.47;;;8.40;99.90;;;;;;5051806;28;20191;-73
2024/01/04 02:08:44;;;;;;;7.97;5.97;;;8.40;99.90;;;;;;5052187;28;20631;-73
2024/01/04 02:11:10;;;;;;;7.53;6.10;;;8.40;99.90;;;;;;5045707;28;20183;-72
2024/01/04 02:13:35;;;;;;;8.50;6.23;;;8.40;99.90;;;;;;5014175;28;20266;-73
2024/01/04 02:16:01;;;;;;;7.53;6.27;;;8.40;99.90;;;;;;5031649;28;20233;-72
2024/01/04 02:18:27;;;;;;;9.67;5.83;;;8.40;99.90;;;;;;5031979;28;20179;-73
2024/01/04 02:20:52;;;;;;;7.10;6.17;;;8.40;99.90;;;;;;5031779;28;20191;-73
2024/01/04 02:23:18;;;;;;;6.37;5.77;;;8.40;99.90;;;;;;5031604;28;20608;-73
2024/01/04 02:25:44;;;;;;;8.17;6.40;;;8.40;99.90;;;;;;5036404;28;20202;-73
2024/01/04 02:28:09;;;;;;;8.47;5.90;;;8.40;99.90;;;;;;5052032;28;20182;-73
2024/01/04 02:30:35;;;;;;;7.20;5.90;;;8.40;99.90;;;;;;5051388;28;20202;-73
2024/01/04 02:33:01;;;;;;;6.07;5.60;;;8.30;99.90;;;;;;5051492;28;20224;-73
2024/01/04 02:35:26;;;;;;;7.83;5.70;;;8.30;99.90;;;;;;5051769;28;20266;-73
2024/01/04 02:37:52;;;;;;;9.37;6.77;;;8.30;99.90;;;;;;5052086;28;20250;-74
2024/01/04 02:40:18;;;;;;;7.37;6.30;;;8.30;99.90;;;;;;5037927;28;20185;-74
2024/01/04 02:42:44;;;;;;;11.43;6.53;;;8.20;99.90;;;;;;5031638;28;20256;-73
2024/01/04 02:45:10;;;;;;;7.23;6.53;;;8.30;99.90;;;;;;5030904;28;20200;-75
2024/01/04 02:47:36;;;;;;;7.03;6.33;;;8.30;99.90;;;;;;5032503;28;20205;-74
2024/01/04 02:50:02;;;;;;;6.80;6.10;;;8.30;99.90;;;;;;5031253;28;20175;-74
2024/01/04 02:52:28;;;;;;;10.60;6.73;;;8.30;99.90;;;;;;5031361;28;20186;-74
2024/01/04 02:54:54;;;;;;;8.30;6.97;;;8.30;99.90;;;;;;5031072;28;20191;-75
2024/01/04 02:57:19;;;;;;;12.60;6.50;;;8.30;99.90;;;;;;5031198;28;20183;-75
2024/01/04 02:59:45;;;;;;;9.37;6.03;;;8.30;99.90;;;;;;5043685;28;20175;-74
2024/01/04 03:02:11;;;;;;;8.67;6.43;;;8.30;99.90;;;;;;5051025;28;20238;-74
2024/01/04 03:04:40;;;;;;;11.63;6.30;;;8.30;99.90;;;;;;5051175;28;20179;-74
2024/01/04 03:07:06;;;;;;;13.20;7.27;;;8.30;99.90;;;;;;5031254;28;20265;-73
2024/01/04 03:09:32;;;;;;;10.27;6.33;;;8.40;99.90;;;;;;5031457;28;20168;-75
2024/01/04 03:11:57;;;;;;;6.97;6.13;;;8.30;99.90;;;;;;5031785;28;20172;-74
2024/01/04 03:14:23;;;;;;;10.23;6.33;;;8.30;99.90;;;;;;5031347;28;20519;-74
2024/01/04 03:16:49;;;;;;;8.57;6.60;;;8.30;99.90;;;;;;5031725;28;20210;-75
2024/01/04 03:19:14;;;;;;;10.87;6.17;;;8.30;99.90;;;;;;5031400;28;20180;-74
2024/01/04 03:21:40;;;;;;;7.73;6.30;;;8.30;99.90;;;;;;5032279;28;20270;-74
2024/01/04 03:24:05;;;;;;;6.60;6.07;;;8.30;99.90;;;;;;5031133;28;20172;-74
2024/01/04 03:26:32;;;;;;;14.17;6.60;;;8.30;99.90;;;;;;5031180;28;20214;-75
2024/01/04 03:28:57;;;;;;;9.17;6.73;;;8.30;99.90;;;;;;5031128;28;20171;-73
2024/01/04 03:31:23;;;;;;;7.53;6.47;;;8.30;99.90;;;;;;5031379;28;20657;-75
2024/01/04 03:33:49;;;;;;;12.80;6.83;;;8.30;99.90;;;;;;5039752;28;20201;-74
2024/01/04 03:36:15;;;;;;;11.40;6.13;;;8.20;99.90;;;;;;5055083;28;20199;-74
2024/01/04 03:38:41;;;;;;;8.80;6.47;;;8.20;99.90;;;;;;5048801;28;20544;-74
2024/01/04 03:41:07;;;;;;;8.97;6.60;;;8.20;99.90;;;;;;5035443;28;20179;-74
2024/01/04 03:43:33;;;;;;;8.33;6.80;;;8.20;99.90;;;;;;5035129;28;20199;-74
2024/01/04 03:45:59;;;;;;;12.43;7.07;;;8.30;99.90;;;;;;5034432;28;20423;-73
2024/01/04 03:48:24;;;;;;;10.17;6.90;;;8.20;99.90;;;;;;5035141;28;20179;-74
2024/01/04 03:50:50;;;;;;;8.00;6.77;;;8.20;99.90;;;;;;5035517;28;20171;-74
2024/01/04 03:53:16;;;;;;;6.30;5.90;;;8.20;99.90;;;;;;5040637;28;20217;-74
2024/01/04 03:55:41;;;;;;;8.00;6.00;;;8.20;99.90;;;;;;5054922;28;20230;-74
2024/01/04 03:58:07;;;;;;;8.03;6.03;;;8.20;99.90;;;;;;5054550;28;20265;-74
2024/01/04 04:00:33;;;;;;;7.70;5.87;;;8.20;99.90;;;;;;5054306;28;20190;-74
2024/01/04 04:02:58;;;;;;;10.33;6.50;;;8.30;99.90;;;;;;5054539;28;20206;-73
2024/01/04 04:05:24;;;;;;;9.00;5.97;;;8.20;99.90;;;;;;5054741;28;20666;-73
2024/01/04 04:07:49;;;;;;;8.07;6.10;;;8.30;99.90;;;;;;5054672;28;20203;-74
2024/01/04 04:10:16;;;;;;;8.77;5.83;;;8.30;99.90;;;;;;5054882;28;20179;-74
2024/01/04 04:12:41;;;;;;;9.17;6.03;;;8.30;99.90;;;;;;5054635;28;20712;-74
2024/01/04 04:15:08;;;;;;;13.57;6.17;;;8.30;99.90;;;;;;5034983;28;20233;-74
2024/01/04 04:17:34;;;;;;;8.37;5.97;;;8.30;99.90;;;;;;5034904;28;20179;-74
2024/01/04 04:20:00;;;;;;;13.30;7.60;;;8.30;99.90;;;;;;5034458;28;20643;-73
2024/01/04 04:22:26;;;;;;;10.10;7.00;;;8.30;99.90;;;;;;5034230;28;20278;-75
2024/01/04 04:24:51;;;;;;;9.57;6.47;;;8.30;99.90;;;;;;5034387;28;20199;-73
2024/01/04 04:27:17;;;;;;;11.17;7.13;;;8.30;99.90;;;;;;5034263;28;20179;-74
2024/01/04 04:29:42;;;;;;;9.20;7.40;;;8.40;99.90;;;;;;5046439;28;20217;-74
2024/01/04 04:32:08;;;;;;;9.20;7.37;;;8.40;99.90;;;;;;5054118;28;20187;-73
2024/01/04 04:34:35;;;;;;;7.97;6.73;;;8.30;99.90;;;;;;5054143;28;20183;-74
2024/01/04 04:37:01;;;;;;;12.23;7.73;;;8.40;99.90;;;;;;5054429;28;20201;-74
2024/01/04 04:39:26;;;;;;;13.67;7.70;;;8.30;99.90;;;;;;5054221;28;20638;-74
2024/01/04 04:41:52;;;;;;;15.70;7.27;;;8.30;99.90;;;;;;5054057;28;20199;-74
2024/01/04 04:44:17;;;;;;;11.10;7.30;;;8.30;99.90;;;;;;5043347;28;20759;-73
2024/01/04 04:46:43;;;;;;;10.23;6.60;;;8.30;99.90;;;;;;5048529;28;20206;-74
2024/01/04 04:49:09;;;;;;;13.50;7.23;;;8.30;99.90;;;;;;5053535;28;20571;-74
2024/01/04 04:51:34;;;;;;;9.90;6.47;;;8.30;99.90;;;;;;5053849;28;20186;-74
2024/01/04 04:54:00;;;;;;;12.10;7.57;;;8.30;99.90;;;;;;5045084;28;20667;-72
2024/01/04 04:56:25;;;;;;;10.40;7.27;;;8.30;99.90;;;;;;5034445;28;20279;-74
2024/01/04 04:58:51;;;;;;;12.53;8.00;;;8.30;99.90;;;;;;5053654;28;20260;-74
2024/01/04 05:01:17;;;;;;;12.63;7.43;;;8.30;99.90;;;;;;5053685;28;20178;-73
2024/01/04 05:03:42;;;;;;;12.37;7.83;;;8.30;99.90;;;;;;5053876;28;20285;-73
2024/01/04 05:06:09;;;;;;;8.33;7.30;;;8.30;99.90;;;;;;5053192;28;20190;-73
2024/01/04 05:08:35;;;;;;;9.70;7.17;;;8.40;99.90;;;;;;5053669;28;20167;-72
2024/01/04 05:11:00;;;;;;;7.03;6.50;;;8.40;99.90;;;;;;5052976;28;20171;-74
2024/01/04 05:13:26;;;;;;;9.03;5.70;;;8.30;99.90;;;;;;5033564;28;20201;-73
2024/01/04 05:15:52;;;;;;;6.10;5.47;;;8.30;99.90;;;;;;5033268;28;20199;-73
2024/01/04 05:18:17;;;;;;;5.70;5.07;;;8.30;99.90;;;;;;5033732;28;20270;-74
2024/01/04 05:20:43;;;;;;;5.87;4.70;;;8.20;99.90;;;;;;5033222;28;20606;-73
2024/01/04 05:23:08;;;;;;;5.10;4.70;;;8.20;99.90;;;;;;5033192;28;20245;-72
2024/01/04 05:25:34;;;;;;;4.60;4.30;;;8.20;99.90;;;;;;5043494;28;20237;-74
2024/01/04 05:28:00;;;;;;;4.73;4.47;;;8.10;99.90;;;;;;5052957;28;20182;-74
2024/01/04 05:30:25;;;;;;;6.20;4.40;;;8.10;99.90;;;;;;5053363;28;20175;-73
2024/01/04 05:32:51;;;;;;;4.50;4.30;;;8.00;99.90;;;;;;5053300;28;20540;-74
2024/01/04 05:35:17;;;;;;;4.27;4.07;;;8.10;99.90;;;;;;5052832;28;20203;-73
2024/01/04 05:37:42;;;;;;;4.70;4.40;;;8.00;99.90;;;;;;5053228;28;20185;-73
2024/01/04 05:40:09;;;;;;;5.83;4.47;;;8.00;99.90;;;;;;5043680;28;20179;-73
2024/01/04 05:42:35;;;;;;;4.37;4.07;;;8.00;99.90;;;;;;5032886;28;20207;-73
2024/01/04 05:45:01;;;;;;;4.90;4.50;;;8.00;99.90;;;;;;5032401;28;20211;-73
2024/01/04 05:47:26;;;;;;;4.90;4.53;;;8.00;99.90;;;;;;5032578;28;20367;-73
2024/01/04 05:49:52;;;;;;;5.23;4.73;;;8.00;99.90;;;;;;5032997;28;20686;-73
2024/01/04 05:52:17;;;;;;;4.93;4.53;;;7.90;99.90;;;;;;5050337;28;20189;-73
2024/01/04 05:54:43;;;;;;;4.97;4.67;;;7.90;99.90;;;;;;5052557;28;20185;-73
2024/01/04 05:57:09;;;;;;;4.40;4.10;;;7.90;99.90;;;;;;5051546;28;20171;-73
2024/01/04 05:59:34;;;;;;;4.20;3.90;;;7.80;99.90;;;;;;5052828;28;20171;-73
2024/01/04 06:02:00;;;;;;;5.30;4.30;;;7.80;99.90;;;;;;5052783;28;20252;-73
2024/01/04 06:04:26;;;;;;;5.73;4.90;;;7.70;99.90;;;;;;5052426;28;20178;-73
2024/01/04 06:06:53;;;;;;;4.77;4.47;;;7.70;99.90;;;;;;5034651;28;20187;-73
2024/01/04 06:09:20;;;;;;;4.80;4.50;;;7.60;99.90;;;;;;5032463;28;20174;-74
2024/01/04 06:11:50;;;;;;;5.63;5.10;;;7.60;99.90;;;;;;5022838;28;20182;-73
2024/01/04 06:14:16;;;;;;;5.93;5.33;;;7.70;99.90;;;;;;5034313;28;20270;-73
2024/01/04 06:16:42;;;;;;;6.57;5.40;;;7.80;99.90;;;;;;5052057;28;20281;-73
2024/01/04 06:19:07;;;;;;;7.23;6.53;;;7.80;99.90;;;;;;5043072;28;20207;-74
2024/01/04 06:21:33;;;;;;;6.00;5.40;;;7.80;99.90;;;;;;5032288;28;20213;-73
2024/01/04 06:23:59;;;;;;;6.17;5.60;;;7.80;99.90;;;;;;5032023;28;20251;-74
2024/01/04 06:26:25;;;;;;;5.80;5.27;;;7.80;99.90;;;;;;5031789;28;20666;-74
2024/01/04 06:28:50;;;;;;;5.40;4.90;;;7.80;99.90;;;;;;5032160;28;20175;-73
2024/01/04 06:31:16;;;;;;;5.40;4.90;;;7.80;99.90;;;;;;5031716;28;20167;-73
2024/01/04 06:33:42;;;;;;;5.63;4.70;;;7.80;99.90;;;;;;5038817;28;20228;-73
2024/01/04 06:36:08;;;;;;;5.00;4.60;;;7.80;99.90;;;;;;5051376;28;20252;-73
2024/01/04 06:38:36;;;;;;;4.43;4.23;;;7.80;99.90;;;;;;5051708;28;20171;-72
2024/01/04 06:41:03;;;;;;;4.43;4.23;;;7.70;99.90;;;;;;5051917;28;20175;-73
2024/01/04 06:43:30;;;;;;;5.30;5.00;;;7.70;99.90;;;;;;5052016;28;20195;-73
2024/01/04 06:45:56;;;;;;;5.40;5.00;;;7.70;99.90;;;;;;5051436;28;20195;-74
2024/01/04 06:48:22;;;;;;;4.57;4.27;;;7.60;99.90;;;;;;5051499;28;20178;-73
2024/01/04 06:50:48;;;;;;;6.47;4.60;;;7.60;99.90;;;;;;5051770;28;20647;-74
2024/01/04 06:53:16;;;;;;;4.83;4.53;;;7.60;99.90;;;;;;5051324;28;20179;-74
2024/01/04 06:55:45;;;;;;;5.10;4.70;;;7.50;99.90;;;;;;5051449;28;20194;-74
2024/01/04 06:58:11;;;;;;;5.17;4.77;;;7.60;99.90;;;;;;5051359;28;20203;-74
2024/01/04 07:00:37;;;;;;;4.50;4.20;;;7.60;99.90;;;;;;5051464;28;20673;-73
2024/01/04 07:03:03;;;;;;;6.00;5.40;;;7.60;99.90;;;;;;5049359;28;20686;-73
2024/01/04 07:05:30;;;;;;;6.40;5.80;;;7.50;99.90;;;;;;5051262;28;20198;-73
2024/01/04 07:07:55;;;;;;;6.00;5.40;;;7.60;99.90;;;;;;5050808;28;20163;-74
2024/01/04 07:10:21;;;;;;;5.93;5.43;;;7.60;99.90;;;;;;5050663;28;20173;-72
2024/01/04 07:12:47;;;;;;;7.67;5.43;;;7.60;99.90;;;;;;5051254;28;20167;-72
2024/01/04 07:15:13;;;;;;;7.57;5.90;;;7.60;99.90;;;;;;5049441;28;20251;-73
2024/01/04 07:17:39;;;;;;;8.00;7.20;;;7.60;99.90;;;;;;5051270;28;20546;-73
2024/01/04 07:20:06;;;;;;;8.20;6.10;;;7.60;99.90;;;;;;5051235;28;20171;-72
2024/01/04 07:22:32;;;;;;;9.33;7.03;;;7.70;99.90;;;;;;5050989;28;20313;-73
2024/01/04 07:24:57;;;;;;;6.13;5.63;;;7.70;99.90;;;;;;5050855;28;20289;-72
2024/01/04 07:27:23;;;;;;;6.60;6.00;;;7.80;99.90;;;;;;5050517;28;20220;-73
2024/01/04 07:29:49;;;;;;;6.43;5.60;;;7.80;99.90;;;;;;5050220;28;20169;-73
2024/01/04 07:32:18;;;;;;;7.43;5.93;;;7.70;99.90;;;;;;5051041;28;20542;-75
2024/01/04 07:34:44;;;;;;;6.67;6.03;;;7.80;99.90;;;;;;5050765;28;20171;-72
2024/01/04 07:37:11;;;;;;;6.23;5.63;;;7.80;99.90;;;;;;5050575;28;20182;-74
2024/01/04 07:39:37;;;;;;;9.67;6.30;;;7.80;99.90;;;;;;5051092;28;20194;-74
2024/01/04 07:42:02;;;;;;;6.97;6.37;;;7.80;99.90;;;;;;5049117;28;20245;-74
2024/01/04 07:44:28;;;;;;;7.33;6.70;;;7.90;99.90;;;;;;5050566;28;20183;-72
2024/01/04 07:46:53;;;;;;;8.93;6.57;;;7.90;99.90;;;;;;5050759;28;20187;-73
2024/01/04 07:49:19;;;;;;;7.67;6.93;;;7.90;99.90;;;;;;5050367;28;20221;-72
2024/01/04 07:51:45;;;;;;;8.70;6.50;;;7.90;99.90;;;;;;5050654;28;20491;-72
2024/01/04 07:54:10;;;;;;;7.17;6.47;;;7.90;99.90;;;;;;5050375;28;20167;-73
2024/01/04 07:56:36;;;;;;;8.27;6.80;;;7.90;99.90;;;;;;5016608;28;20587;-73
2024/01/04 07:59:02;;;;;;;12.03;7.17;;;8.00;99.90;;;;;;5031008;28;20180;-75
2024/01/04 08:01:28;;;;;;;9.80;7.10;;;8.00;99.90;;;;;;5031563;28;20180;-75
2024/01/04 08:03:53;;;;;;;8.57;7.67;;;8.00;99.90;;;;;;5032117;28;20207;-75
2024/01/04 08:06:19;;;;;;;11.40;8.97;;;8.00;99.90;;;;;;5036150;28;20582;-75
2024/01/04 08:08:45;;;;;;;12.30;6.57;;;8.10;99.90;;;;;;5033466;28;20231;-73
2024/01/04 08:11:10;;;;;;;7.23;5.97;;;8.00;99.90;;;;;;5031820;28;20171;-74
2024/01/04 08:13:36;;;;;;;9.20;6.73;;;8.00;99.90;;;;;;5031315;28;20670;-73
2024/01/04 08:16:02;;;;;;;10.33;6.07;;;8.10;99.90;;;;;;5031705;28;20705;-74
2024/01/04 08:18:28;;;;;;;7.47;5.77;;;8.10;99.90;;;;;;5031539;28;20172;-75
2024/01/04 08:20:54;;;;;;;7.57;6.10;;;8.00;99.90;;;;;;5033024;28;20266;-74
2024/01/04 08:23:19;;;;;;;8.17;5.53;;;8.00;99.90;;;;;;5040205;28;20229;-74
2024/01/04 08:25:45;;;;;;;6.23;5.00;;;8.00;99.90;;;;;;5054407;28;20222;-74
2024/01/04 08:28:12;;;;;;;5.93;5.10;;;8.00;99.90;;;;;;5036904;28;20175;-74
2024/01/04 08:30:37;;;;;;;6.53;5.63;;;8.00;99.90;;;;;;5054879;28;20171;-73
2024/01/04 08:33:03;;;;;;;8.10;5.73;;;8.00;99.90;;;;;;5055330;28;20213;-75
2024/01/04 08:35:29;;;;;;;7.57;6.00;;;8.00;99.90;;;;;;5056484;28;20709;-75
2024/01/04 08:37:54;;;;;;;8.97;6.70;;;8.00;99.90;;;;;;5051634;28;20194;-75
2024/01/04 08:40:20;;;;;;;10.33;9.23;;;8.00;99.90;;;;;;5034757;28;20168;-75
2024/01/04 08:42:46;;;;;;;8.30;6.70;;;8.00;99.90;;;;;;5033606;28;20199;-74
2024/01/04 08:45:12;;;;;;;9.07;7.20;;;8.10;99.90;;;;;;5051259;28;20259;-75
2024/01/04 08:47:38;;;;;;;8.13;7.00;;;8.10;99.90;;;;;;5035926;28;20167;-75
2024/01/04 08:50:04;;;;;;;8.70;7.73;;;8.10;99.90;;;;;;5054034;28;20259;-74
2024/01/04 08:52:30;;;;;;;10.57;7.70;;;8.10;99.90;;;;;;5047265;28;20176;-75
2024/01/04 08:54:56;;;;;;;7.80;6.23;;;8.20;99.90;;;;;;5033508;28;20381;-75
2024/01/04 08:57:22;;;;;;;10.47;5.80;;;8.10;99.90;;;;;;5033321;28;20171;-74
2024/01/04 08:59:48;;;;;;;10.73;5.77;;;8.20;99.90;;;;;;5033760;28;20266;-74
2024/01/04 09:02:14;;;;;;;8.43;6.27;;;8.20;99.90;;;;;;5033300;28;20394;-74
2024/01/04 09:04:40;;;;;;;10.33;6.27;;;8.20;99.90;;;;;;5033243;28;20218;-74
2024/01/04 09:07:07;;;;;;;8.93;5.77;;;8.30;99.90;;;;;;5034274;28;20176;-75
2024/01/04 09:09:32;;;;;;;8.73;6.20;;;8.30;99.90;;;;;;5043298;28;20179;-74
2024/01/04 09:11:58;;;;;;;12.40;6.43;;;8.40;99.90;;;;;;5053483;28;20225;-73
2024/01/04 09:14:23;;;;;;;7.57;6.43;;;8.40;99.90;;;;;;5052948;28;20178;-73
2024/01/04 09:16:49;;;;;;;9.40;5.97;;;8.50;99.90;;;;;;5052918;28;20191;-74
2024/01/04 09:19:15;;;;;;;13.23;5.73;;;8.50;99.90;;;;;;5052872;28;20175;-73
2024/01/04 09:21:42;;;;;;;7.03;5.83;;;8.50;99.90;;;;;;5045837;28;20202;-75
2024/01/04 09:24:09;;;;;;;8.53;6.70;;;8.50;99.90;;;;;;5034899;28;20160;-74
2024/01/04 09:26:42;;;;;;;11.80;6.87;;;8.60;99.90;;;;;;5033918;28;20188;-75
2024/01/04 09:29:08;;;;;;;11.10;6.40;;;8.60;99.90;;;;;;5033295;28;20164;-74
2024/01/04 09:31:34;;;;;;;10.53;7.07;;;8.70;99.90;;;;;;5033777;28;20184;-74
2024/01/04 09:33:59;;;;;;;9.33;6.43;;;8.70;99.90;;;;;;5033122;28;20254;-75
2024/01/04 09:36:25;;;;;;;7.27;6.10;;;8.70;99.90;;;;;;5032285;28;20723;-75
2024/01/04 09:38:51;;;;;;;10.80;7.07;;;8.70;99.90;;;;;;5032899;28;20212;-74
2024/01/04 09:41:25;;;;;;;12.33;6.37;;;8.60;99.90;;;;;;5032823;28;20274;-75
2024/01/04 09:43:55;;;;;;;7.60;6.57;;;8.60;99.90;;;;;;5032593;28;20209;-76
2024/01/04 09:46:25;;;;;;;7.67;6.40;;;8.50;99.90;;;;;;5048752;28;20213;-75
2024/01/04 09:48:57;;;;;;;6.83;6.23;;;8.50;99.90;;;;;;5052703;28;20163;-75
2024/01/04 09:51:24;;;;;;;8.37;6.00;;;8.40;99.90;;;;;;5051373;28;20587;-75
2024/01/04 09:53:53;;;;;;;9.30;6.60;;;8.40;99.90;;;;;;5037834;28;20168;-75
2024/01/04 09:56:20;;;;;;;6.73;5.73;;;8.40;99.90;;;;;;5046915;28;20195;-75
2024/01/04 09:58:48;;;;;;;6.90;6.23;;;8.40;99.90;;;;;;5050912;28;20657;-75
2024/01/04 10:01:19;;;;;;;7.57;6.03;;;8.40;99.90;;;;;;5052508;28;20201;-75
2024/01/04 10:03:47;;;;;;;5.67;4.87;;;8.20;99.90;;;;;;5052728;28;20199;-76
2024/01/04 10:06:16;;;;;;;5.93;5.43;;;7.90;99.90;;;;;;5052388;28;20183;-75
2024/01/04 10:08:43;;;;;;;5.03;4.63;;;7.70;99.90;;;;;;5051269;28;20246;-75
2024/01/04 10:11:19;;;;;;;5.73;5.23;;;7.60;99.90;;;;;;5050241;28;20662;-75
2024/01/04 10:13:46;;;;;;;6.00;5.50;;;7.60;99.90;;;;;;5043659;28;20171;-74
2024/01/04 10:16:12;;;;;;;5.77;5.27;;;7.70;99.90;;;;;;5042688;28;20642;-73
2024/01/04 10:18:37;;;;;;;10.87;6.23;;;7.70;99.90;;;;;;5052340;28;20194;-74
2024/01/04 10:21:04;;;;;;;6.77;5.93;;;7.80;99.90;;;;;;5050727;28;20195;-76
2024/01/04 10:23:31;;;;;;;8.67;6.63;;;8.00;99.90;;;;;;5034333;28;20195;-74
2024/01/04 10:26:10;;;;;;;9.83;6.63;;;8.20;99.90;;;;;;5052090;28;20670;-75
2024/01/04 10:28:38;;;;;;;8.40;6.30;;;8.40;99.90;;;;;;5051741;28;20249;-75
2024/01/04 10:31:11;;;;;;;13.23;6.83;;;8.50;99.90;;;;;;5038330;28;20179;-76
2024/01/04 10:33:37;;;;;;;8.33;5.53;;;8.60;99.90;;;;;;5031419;28;20199;-74
2024/01/04 10:36:10;;;;;;;5.60;5.13;;;8.70;99.90;;;;;;5032422;28;20246;-77
2024/01/04 10:38:36;;;;;;;6.27;5.50;;;8.70;99.90;;;;;;5021029;28;20273;-76
2024/01/04 10:41:02;;;;;;;6.00;5.57;;;8.80;99.90;;;;;;5052078;28;20182;-76
2024/01/04 10:43:30;;;;;;;6.20;5.60;;;8.90;99.90;;;;;;5052160;28;20229;-75
2024/01/04 10:46:05;;;;;;;6.30;5.30;;;8.90;99.90;;;;;;5052051;28;20182;-75
2024/01/04 10:48:31;;;;;;;7.10;5.10;;;8.90;99.90;;;;;;5052254;28;20626;-77
2024/01/04 10:51:01;;;;;;;5.27;4.87;;;9.00;99.90;;;;;;5052486;28;20167;-72
2024/01/04 10:53:34;;;;;;;6.50;5.27;;;8.90;99.90;;;;;;5032736;28;20194;-72
2024/01/04 10:56:03;;;;;;;7.17;5.37;;;8.90;99.90;;;;;;5031578;28;20221;-73
2024/01/04 10:58:33;;;;;;;5.43;4.97;;;8.90;99.90;;;;;;5032615;28;20227;-74
2024/01/04 11:01:03;;;;;;;5.03;4.73;;;8.90;99.90;;;;;;5043036;28;20569;-74
2024/01/04 11:03:33;;;;;;;5.57;5.17;;;8.90;99.90;;;;;;5031124;28;20203;-72
2024/01/04 11:06:00;;;;;;;12.80;5.23;;;9.00;99.90;;;;;;5031246;28;20568;-74
2024/01/04 11:08:27;;;;;;;10.27;4.93;;;9.20;99.90;;;;;;5031151;28;20167;-74
2024/01/04 11:10:54;;;;;;;10.77;4.90;;;9.30;99.90;;;;;;5032029;28;20186;-74
2024/01/04 11:13:19;;;;;;;11.43;5.50;;;9.40;99.90;;;;;;5031310;28;20182;-75
2024/01/04 11:15:46;;;;;;;9.43;5.13;;;9.30;99.90;;;;;;5036542;28;20198;-73
2024/01/04 11:18:31;;;;;;;7.80;5.57;;;9.30;99.90;;;;;;5029452;28;20175;-75
2024/01/04 11:21:41;;;;;;;10.13;5.30;;;9.40;99.90;;;;;;5031162;28;20550;-73
2024/01/04 11:24:25;;;;;;;12.13;6.17;;;9.30;99.90;;;;;;5031195;28;20222;-74
2024/01/04 11:26:58;;;;;;;13.83;5.40;;;9.40;99.90;;;;;;5031318;28;20187;-73
2024/01/04 11:29:26;;;;;;;12.43;6.23;;;9.30;99.90;;;;;;5050065;28;20183;-73
2024/01/04 11:31:53;;;;;;;11.13;5.43;;;9.30;99.90;;;;;;5051061;28;20199;-75
2024/01/04 11:34:19;;;;;;;12.07;6.57;;;9.20;99.90;;;;;;5050853;28;20159;-74
2024/01/04 11:36:45;;;;;;;11.93;7.63;;;9.20;99.90;;;;;;5051041;28;20186;-74
2024/01/04 11:39:10;;;;;;;14.97;6.47;;;9.20;99.90;;;;;;5051512;28;20195;-76
2024/01/04 11:41:37;;;;;;;12.73;5.03;;;9.30;99.90;;;;;;5050787;28;20186;-72
2024/01/04 11:44:14;;;;;;;10.60;5.80;;;9.20;99.90;;;;;;5031379;28;20556;-73
2024/01/04 11:46:42;;;;;;;19.93;5.77;;;9.30;99.90;;;;;;5030186;28;20194;-72
2024/01/04 11:49:08;;;;;;;17.13;5.90;;;9.30;99.90;;;;;;5031066;28;20616;-72
2024/01/04 11:51:49;;;;;;;14.37;5.63;;;9.30;99.90;;;;;;5030963;28;20180;-72
2024/01/04 11:54:17;;;;;;;17.47;6.27;;;9.10;99.90;;;;;;5013214;28;20258;-72
2024/01/04 11:56:46;;;;;;;15.13;6.20;;;9.10;99.90;;;;;;5047506;28;20198;-73
2024/01/04 11:59:14;;;;;;;11.47;6.17;;;9.10;99.90;;;;;;5054724;28;20232;-72
2024/01/04 12:01:42;;;;;;;17.67;6.27;;;9.10;99.90;;;;;;5054718;28;20167;-71
2024/01/04 12:04:09;;;;;;;17.50;5.83;;;9.10;99.90;;;;;;5054671;28;20177;-72
2024/01/04 12:06:39;;;;;;;13.70;5.97;;;9.10;99.90;;;;;;5054238;28;20187;-72
2024/01/04 12:09:06;;;;;;;13.80;6.10;;;8.90;99.90;;;;;;5054786;28;20485;-71
2024/01/04 12:11:43;;;;;;;16.73;6.23;;;8.80;99.90;;;;;;5050878;28;20258;-73
2024/01/04 12:14:09;;;;;;;13.50;5.30;;;8.80;99.90;;;;;;5034892;28;20250;-72
2024/01/04 12:16:37;;;;;;;15.10;5.40;;;8.80;99.90;;;;;;5048567;28;20218;-71
2024/01/04 12:19:03;;;;;;;11.70;5.37;;;8.70;99.90;;;;;;5054425;28;20189;-72
2024/01/04 12:21:29;;;;;;;12.47;5.20;;;8.70;99.90;;;;;;5036447;28;20186;-72
2024/01/04 12:23:55;;;;;;;13.83;5.53;;;8.80;99.90;;;;;;5054721;28;20203;-72
2024/01/04 12:26:26;;;;;;;16.23;6.70;;;8.80;99.90;;;;;;5054232;28;20191;-72
2024/01/04 12:28:52;;;;;;;9.50;5.57;;;8.90;99.90;;;;;;5054421;28;20171;-72
2024/01/04 12:31:24;;;;;;;18.27;5.87;;;8.90;99.90;;;;;;5054027;28;20225;-74
2024/01/04 12:33:53;;;;;;;13.00;5.50;;;8.90;99.90;;;;;;5054342;28;20587;-71
2024/01/04 12:36:22;;;;;;;14.67;5.83;;;8.90;99.90;;;;;;5054166;28;20552;-72
2024/01/04 12:38:52;;;;;;;15.40;5.57;;;9.00;99.90;;;;;;5054378;28;20178;-73
2024/01/04 12:41:29;;;;;;;11.00;5.00;;;9.10;99.90;;;;;;5054153;28;20535;-72
2024/01/04 12:43:56;;;;;;;17.23;5.87;;;9.10;99.90;;;;;;5035931;28;20580;-72
2024/01/04 12:46:22;;;;;;;14.87;5.50;;;9.10;99.90;;;;;;5052950;28;20191;-72
2024/01/04 12:48:53;;;;;;;13.90;6.07;;;9.00;99.90;;;;;;5054102;28;20167;-72
2024/01/04 12:51:28;;;;;;;11.07;6.00;;;9.00;99.90;;;;;;5053965;28;20167;-72